Terminal Aerodrome Forecast
Issued by NWS

Home | Current Version | Previous Version | Text Only | Print | Product List | Glossary On
Versions: 1 2 3 4 5 6 7 8 9 10 11 12 13 14 15 16 17 18 19 20 21 22 23 24 25 26 27
000
FTUS46 KOTX 260533
TAFCOE
TAF
KCOE 260533Z 2606/2706 09003KT P6SM SCT060 BKN080 OVC150
     FM261500 VRB05KT P6SM SCT080 SCT120
     FM261900 27007KT P6SM SCT060
     FM270300 20004KT P6SM FEW200
      AMD LTD TO CLD AND VIS=

USA.gov is the U.S. government's official web portal to all federal, state and local government web resources and services.